Time;durP1;ratioP1;P1;durP2;ratioP2;P2;SDS_P1;SDS_P2;PMS_P1;PMS_P2;Temp;Humidity;BMP_temperature;BMP_pressure;BME280_temperature;BME280_humidity;BME280_pressure;Samples;Min_cycle;Max_cycle;Signal;HPM_P1;HPM_P2
2022/01/22 00:01:20;;;;;;;20.50;3.05;;;8.40;99.90;;;;;;5156796;27;20452;-83
2022/01/22 00:04:04;;;;;;;;;;;6.40;99.90;;;;;;5140864;27;20049;-83
2022/01/22 00:06:51;;;;;;;15.27;2.65;;;6.40;99.90;;;;;;5140332;27;19918;-84
2022/01/22 00:09:38;;;;;;;17.77;2.40;;;6.40;99.90;;;;;;5141238;27;20038;-83
2022/01/22 00:12:40;;;;;;;17.95;2.40;;;6.40;99.90;;;;;;5140703;27;20422;-83
2022/01/22 00:15:25;;;;;;;18.42;3.33;;;7.50;99.90;;;;;;5140589;27;20038;-83
2022/01/22 00:18:09;;;;;;;16.60;1.98;;;6.40;99.90;;;;;;5156141;27;20490;-83
2022/01/22 00:20:53;;;;;;;;;;;7.70;99.90;;;;;;5156310;27;20083;-83
2022/01/22 00:23:38;;;;;;;10.30;2.10;;;6.40;99.90;;;;;;5139800;27;19914;-83
2022/01/22 00:26:23;;;;;;;16.65;2.47;;;6.60;99.90;;;;;;5140547;27;20041;-83
2022/01/22 00:29:08;;;;;;;15.65;2.30;;;6.40;99.90;;;;;;5139948;27;20038;-83
2022/01/22 00:31:52;;;;;;;23.92;3.08;;;8.20;99.90;;;;;;5140000;27;20171;-82
2022/01/22 00:34:37;;;;;;;20.88;2.92;;;8.00;99.90;;;;;;5140481;27;20527;-82
2022/01/22 00:37:21;;;;;;;20.77;3.22;;;6.70;99.90;;;;;;5126074;27;20107;-83
2022/01/22 00:40:08;;;;;;;20.58;2.65;;;7.20;99.90;;;;;;5155397;27;20536;-83
2022/01/22 00:42:52;;;;;;;15.05;2.65;;;6.40;99.90;;;;;;5155414;27;20079;-83
2022/01/22 00:45:36;;;;;;;17.00;3.17;;;6.50;99.90;;;;;;5125810;27;20083;-83
2022/01/22 00:48:21;;;;;;;18.00;3.88;;;6.50;99.90;;;;;;5125536;27;20172;-83
2022/01/22 00:51:05;;;;;;;22.67;2.75;;;6.80;99.90;;;;;;5139475;27;20126;-83
2022/01/22 00:53:50;;;;;;;17.35;2.50;;;7.10;99.90;;;;;;5125053;27;20061;-83
2022/01/22 00:56:34;;;;;;;17.75;2.78;;;7.40;99.90;;;;;;5125777;27;20087;-83
2022/01/22 00:59:18;;;;;;;17.55;4.35;;;6.40;99.90;;;;;;5125321;27;20042;-83
2022/01/22 01:02:04;;;;;;;14.02;3.55;;;6.50;99.90;;;;;;5139494;27;20422;-83
2022/01/22 01:04:48;;;;;;;10.63;2.80;;;6.50;99.90;;;;;;5139687;27;20045;-83
2022/01/22 01:07:32;;;;;;;9.85;2.70;;;6.50;99.90;;;;;;5155334;27;20034;-83
2022/01/22 01:10:17;;;;;;;;;;;6.50;99.90;;;;;;5134164;27;20444;-84
2022/01/22 01:13:02;;;;;;;17.73;3.30;;;6.50;99.90;;;;;;5121377;27;19910;-83
2022/01/22 01:16:00;;;;;;;13.88;3.72;;;6.50;99.90;;;;;;5123431;27;20061;-83
2022/01/22 01:36:54;;;;;;;23.55;3.33;;;7.30;99.90;;;;;;5123981;27;20033;-85
2022/01/22 01:39:40;;;;;;;10.45;2.13;;;7.00;99.90;;;;;;5124687;27;20041;-83
2022/01/22 01:42:35;;;;;;;18.05;2.30;;;6.60;99.90;;;;;;5154651;27;20038;-83
2022/01/22 01:45:19;;;;;;;12.52;2.10;;;6.60;99.90;;;;;;5138572;27;20041;-83
2022/01/22 01:48:09;;;;;;;12.63;3.42;;;7.20;99.90;;;;;;5154087;27;20062;-84
2022/01/22 01:50:56;;;;;;;10.38;1.90;;;6.60;99.90;;;;;;5154645;27;20515;-83
2022/01/22 01:59:36;;;;;;;11.05;2.03;;;7.00;99.90;;;;;;5141631;27;20041;-83
2022/01/22 02:02:23;;;;;;;8.25;1.90;;;6.60;99.90;;;;;;5123848;27;20112;-83
2022/01/22 02:05:10;;;;;;;10.00;2.45;;;7.90;99.90;;;;;;5153941;27;20038;-83
2022/01/22 02:07:55;;;;;;;9.30;1.95;;;6.60;99.90;;;;;;5138763;27;20038;-83
2022/01/22 02:10:46;;;;;;;7.70;2.42;;;6.60;99.90;;;;;;5138730;27;20130;-83
2022/01/22 02:25:39;;;;;;;7.93;1.95;;;6.70;99.90;;;;;;5129508;27;20119;-83
2022/01/22 02:28:23;;;;;;;9.45;1.63;;;6.60;99.90;;;;;;5138015;27;20072;-83
2022/01/22 02:34:26;;;;;;;6.93;2.17;;;6.60;99.90;;;;;;5129431;27;20073;-83
2022/01/22 02:37:15;;;;;;;10.80;2.20;;;6.60;99.90;;;;;;5139912;27;20049;-83
2022/01/22 02:40:06;;;;;;;11.57;1.85;;;6.60;99.90;;;;;;5138378;27;20075;-83
2022/01/22 02:42:50;;;;;;;10.05;2.45;;;6.50;99.90;;;;;;5125952;27;20500;-83
2022/01/22 02:45:35;;;;;;;11.75;2.00;;;6.70;99.90;;;;;;5123854;27;20073;-85
2022/01/22 02:48:19;;;;;;;;;;;6.60;99.90;;;;;;5142386;27;20497;-83
2022/01/22 02:51:03;;;;;;;11.70;2.35;;;6.60;99.90;;;;;;5142454;27;19971;-83
2022/01/22 02:53:49;;;;;;;8.40;2.20;;;6.60;99.90;;;;;;5142391;27;20167;-83
2022/01/22 02:56:34;;;;;;;11.88;2.00;;;6.80;99.90;;;;;;5142216;27;20041;-83
2022/01/22 02:59:22;;;;;;;6.47;1.45;;;6.60;99.90;;;;;;5127281;27;20038;-83
2022/01/22 03:02:09;;;;;;;7.05;1.73;;;6.60;99.90;;;;;;5127800;27;20060;-84
2022/01/22 03:04:53;;;;;;;8.10;1.92;;;7.60;99.90;;;;;;5142113;27;20469;-83
2022/01/22 03:07:39;;;;;;;11.95;2.78;;;6.50;99.90;;;;;;5157728;27;20041;-82
2022/01/22 03:10:26;;;;;;;8.60;2.15;;;6.60;99.90;;;;;;5141455;27;20107;-82
2022/01/22 03:14:10;;;;;;;9.90;2.88;;;7.50;99.90;;;;;;5157112;27;20553;-83
2022/01/22 03:16:51;;;;;;;7.38;1.63;;;6.60;99.90;;;;;;5134767;27;20041;-83
2022/01/22 03:22:53;;;;;;;8.90;1.80;;;7.80;99.90;;;;;;5156850;27;20041;-83
2022/01/22 03:28:41;;;;;;;10.52;1.88;;;6.50;99.90;;;;;;5144513;27;20479;-83
2022/01/22 03:31:26;;;;;;;6.68;2.22;;;6.50;99.90;;;;;;5141879;27;20081;-83
2022/01/22 03:34:10;;;;;;;7.68;1.83;;;6.50;99.90;;;;;;5141220;27;20114;-84
2022/01/22 03:36:55;;;;;;;10.93;2.30;;;6.50;99.90;;;;;;5157319;27;20041;-83
2022/01/22 03:39:39;;;;;;;3.97;1.67;;;7.70;99.90;;;;;;5141637;27;20557;-83
2022/01/22 03:42:23;;;;;;;;;;;6.60;99.90;;;;;;5156969;27;20103;-83
2022/01/22 03:45:09;;;;;;;5.18;1.73;;;6.50;99.90;;;;;;5141392;27;19914;-83
2022/01/22 03:47:54;;;;;;;5.00;1.23;;;6.50;99.90;;;;;;5141315;27;20103;-83
2022/01/22 03:50:39;;;;;;;4.07;1.30;;;6.50;99.90;;;;;;5141095;27;20089;-83
2022/01/22 03:53:23;;;;;;;4.70;1.23;;;6.80;99.90;;;;;;5140773;27;20045;-83
2022/01/22 03:56:09;;;;;;;5.30;1.95;;;6.50;99.90;;;;;;5126668;27;20551;-83
2022/01/22 03:58:53;;;;;;;7.47;1.60;;;6.50;99.90;;;;;;5156444;27;20543;-84
2022/01/22 04:04:45;;;;;;;5.65;2.35;;;6.40;99.90;;;;;;5156814;27;20091;-83
2022/01/22 04:10:17;;;;;;;9.70;2.00;;;6.70;99.90;;;;;;5140427;27;20119;-84
2022/01/22 04:13:06;;;;;;;9.45;1.77;;;6.50;99.90;;;;;;5140773;27;20122;-83
2022/01/22 04:15:50;;;;;;;5.47;1.50;;;6.50;99.90;;;;;;5156273;27;20102;-83
2022/01/22 04:24:51;;;;;;;8.63;1.60;;;6.40;99.90;;;;;;5156108;27;20046;-83
2022/01/22 04:27:35;;;;;;;8.73;1.92;;;6.40;99.90;;;;;;5140044;27;20091;-83
2022/01/22 04:30:20;;;;;;;;;;;6.40;99.90;;;;;;5156064;27;20083;-83
2022/01/22 04:33:05;;;;;;;5.53;1.90;;;6.40;99.90;;;;;;5125656;27;19982;-83
2022/01/22 04:35:49;;;;;;;9.75;1.73;;;6.50;99.90;;;;;;5156202;27;20037;-83
2022/01/22 04:38:33;;;;;;;;;;;6.70;99.90;;;;;;5140245;27;20050;-83
2022/01/22 04:41:17;;;;;;;5.45;1.35;;;6.40;99.90;;;;;;5155905;27;19958;-83
2022/01/22 04:44:04;;;;;;;7.25;1.70;;;6.40;99.90;;;;;;5140371;27;20087;-83
2022/01/22 04:46:59;;;;;;;10.85;1.77;;;6.40;99.90;;;;;;5155994;27;20038;-83
2022/01/22 04:55:18;;;;;;;8.70;1.60;;;6.40;99.90;;;;;;5155697;27;20091;-83
2022/01/22 04:58:03;;;;;;;4.93;1.30;;;6.40;99.90;;;;;;5155569;27;20166;-83
2022/01/22 05:00:47;;;;;;;4.82;1.23;;;6.90;99.90;;;;;;5139894;27;20037;-83
2022/01/22 05:03:31;;;;;;;10.52;1.90;;;6.40;99.90;;;;;;5139310;27;20116;-83
2022/01/22 05:06:15;;;;;;;;;;;7.70;99.90;;;;;;5155820;27;20042;-83
2022/01/22 05:09:00;;;;;;;13.30;1.80;;;6.40;99.90;;;;;;5154871;27;19959;-83
2022/01/22 05:11:44;;;;;;;8.23;1.75;;;6.40;99.90;;;;;;5124820;27;20041;-83
2022/01/22 05:14:28;;;;;;;6.22;1.77;;;6.40;99.90;;;;;;5139149;27;20042;-83
2022/01/22 05:17:13;;;;;;;;;;;6.40;99.90;;;;;;5125466;27;20435;-83
2022/01/22 05:23:16;;;;;;;6.32;1.67;;;6.30;99.90;;;;;;5149511;27;19914;-83
2022/01/22 05:26:03;;;;;;;8.95;1.52;;;6.30;99.90;;;;;;5140232;27;20489;-83
2022/01/22 05:37:22;;;;;;;10.45;1.92;;;7.30;99.90;;;;;;5154778;27;20168;-83
2022/01/22 05:40:07;;;;;;;9.43;1.80;;;7.00;99.90;;;;;;5139146;27;20038;-83
2022/01/22 05:42:52;;;;;;;12.02;2.00;;;6.30;99.90;;;;;;5124809;27;20121;-82
2022/01/22 05:45:36;;;;;;;;;;;6.30;99.90;;;;;;5154635;27;20046;-83
2022/01/22 05:48:20;;;;;;;10.98;1.90;;;7.60;99.90;;;;;;5154722;27;19918;-83
2022/01/22 05:51:05;;;;;;;;;;;6.30;99.90;;;;;;5139300;27;20073;-83
2022/01/22 05:54:17;;;;;;;4.88;1.38;;;6.40;99.90;;;;;;5138471;27;20324;-83
2022/01/22 06:00:00;;;;;;;16.05;2.72;;;7.20;99.90;;;;;;5152626;27;20119;-83
2022/01/22 06:02:48;;;;;;;10.10;2.22;;;6.40;99.90;;;;;;5153894;27;20049;-85
2022/01/22 06:05:32;;;;;;;9.05;1.98;;;6.30;99.90;;;;;;5124276;27;20129;-83
2022/01/22 06:08:17;;;;;;;;;;;7.10;99.90;;;;;;5139126;27;20489;-83
2022/01/22 06:11:10;;;;;;;11.90;2.38;;;6.30;99.90;;;;;;5124176;27;20005;-83
2022/01/22 06:13:54;;;;;;;18.48;2.20;;;6.90;99.90;;;;;;5125625;27;20390;-83
2022/01/22 06:16:38;;;;;;;7.30;2.50;;;6.30;99.90;;;;;;5153705;27;20547;-83
2022/01/22 06:19:23;;;;;;;10.13;2.03;;;6.30;99.90;;;;;;5138521;27;20099;-83
2022/01/22 06:22:06;;;;;;;9.05;2.75;;;6.40;99.90;;;;;;5156742;27;20131;-83
2022/01/22 06:24:51;;;;;;;13.32;3.58;;;6.40;99.90;;;;;;5158089;27;20095;-83
2022/01/22 06:27:35;;;;;;;11.05;2.10;;;6.40;99.90;;;;;;5113514;27;20041;-83
2022/01/22 06:30:20;;;;;;;8.57;2.38;;;6.40;99.90;;;;;;5158202;27;20137;-83
2022/01/22 06:33:04;;;;;;;6.97;1.77;;;6.30;99.90;;;;;;5158374;27;20087;-82
2022/01/22 06:35:49;;;;;;;7.35;1.85;;;6.30;99.90;;;;;;5142220;27;20088;-83
2022/01/22 06:38:34;;;;;;;8.75;1.83;;;6.90;99.90;;;;;;5121535;27;20092;-83
2022/01/22 06:44:24;;;;;;;11.00;2.25;;;6.30;99.90;;;;;;5137441;27;20084;-83
2022/01/22 06:47:08;;;;;;;10.43;2.05;;;6.30;99.90;;;;;;5122034;27;20043;-83
2022/01/22 06:49:52;;;;;;;;;;;6.30;99.90;;;;;;5137252;27;20115;-83
2022/01/22 06:52:38;;;;;;;;;;;7.00;99.90;;;;;;5136955;27;19946;-83
2022/01/22 06:55:45;;;;;;;5.03;1.75;;;6.30;99.90;;;;;;5137006;27;20007;-83
2022/01/22 06:58:29;;;;;;;5.22;1.50;;;6.30;99.90;;;;;;5146592;27;20037;-83
2022/01/22 07:01:15;;;;;;;8.95;2.35;;;6.80;99.90;;;;;;5125829;27;20044;-84
2022/01/22 07:03:59;;;;;;;14.23;2.75;;;7.10;99.90;;;;;;5136431;27;20039;-83
2022/01/22 07:06:43;;;;;;;;;;;6.30;99.90;;;;;;5136969;27;20077;-83
2022/01/22 07:09:27;;;;;;;5.05;1.58;;;6.30;99.90;;;;;;5121420;27;19918;-83
2022/01/22 07:12:12;;;;;;;6.72;1.73;;;6.30;99.90;;;;;;5107100;27;20128;-84
2022/01/22 07:14:57;;;;;;;8.65;2.10;;;7.00;99.90;;;;;;5120472;27;20251;-83
2022/01/22 07:17:41;;;;;;;;;;;6.40;99.90;;;;;;5106451;27;20103;-84
2022/01/22 07:20:31;;;;;;;10.52;2.15;;;6.20;99.90;;;;;;5121251;27;19914;-83
2022/01/22 07:23:54;;;;;;;7.85;2.13;;;6.20;99.90;;;;;;5122146;27;20483;-84
2022/01/22 07:26:25;;;;;;;11.50;2.70;;;6.20;99.90;;;;;;5136420;27;20058;-84
2022/01/22 07:29:10;;;;;;;6.43;1.85;;;6.20;99.90;;;;;;5120875;27;20065;-80
2022/01/22 07:31:54;;;;;;;9.30;1.80;;;6.20;99.90;;;;;;5119938;27;20047;-82
2022/01/22 07:34:39;;;;;;;6.80;1.73;;;6.20;99.90;;;;;;5132472;27;20089;-80
2022/01/22 07:37:23;;;;;;;;;;;6.20;99.90;;;;;;5156962;27;20095;-80
2022/01/22 07:40:10;;;;;;;7.35;1.70;;;6.10;99.90;;;;;;5140498;27;19995;-81
2022/01/22 07:42:55;;;;;;;5.75;1.92;;;6.10;99.90;;;;;;5155880;27;20406;-81
2022/01/22 07:45:39;;;;;;;5.18;1.65;;;6.10;99.90;;;;;;5123892;27;20034;-81
2022/01/22 07:48:23;;;;;;;7.70;2.08;;;6.80;99.90;;;;;;5141117;27;20155;-81
2022/01/22 07:51:09;;;;;;;5.78;1.80;;;6.10;99.90;;;;;;5136854;27;20039;-81
2022/01/22 07:53:53;;;;;;;7.88;1.90;;;6.10;99.90;;;;;;5153113;27;20069;-81
2022/01/22 07:56:37;;;;;;;6.28;1.65;;;6.50;99.90;;;;;;5154953;27;20068;-80
2022/01/22 07:59:22;;;;;;;;;;;6.80;99.90;;;;;;5141358;27;20038;-81
2022/01/22 08:02:06;;;;;;;8.38;2.78;;;6.70;99.90;;;;;;5140192;27;19917;-83
2022/01/22 08:04:50;;;;;;;7.97;1.40;;;6.80;99.90;;;;;;5139629;27;20042;-83
2022/01/22 08:07:35;;;;;;;8.85;1.90;;;6.10;99.90;;;;;;5140876;27;20571;-85
2022/01/22 08:10:19;;;;;;;5.07;1.95;;;6.80;99.90;;;;;;5156078;27;20065;-83
2022/01/22 08:13:03;;;;;;;3.50;1.30;;;7.50;99.90;;;;;;5140488;27;20087;-82
2022/01/22 08:15:47;;;;;;;4.82;2.30;;;7.50;99.90;;;;;;5139949;27;20037;-83
2022/01/22 08:18:31;;;;;;;;;;;7.40;99.90;;;;;;5156710;27;20038;-83
2022/01/22 08:21:16;;;;;;;3.33;1.80;;;6.30;99.90;;;;;;5126138;27;20003;-83
2022/01/22 08:24:02;;;;;;;6.50;1.80;;;6.10;99.90;;;;;;5125659;27;20091;-83
2022/01/22 08:26:51;;;;;;;5.90;1.60;;;6.90;99.90;;;;;;5125886;27;20087;-83
2022/01/22 08:29:35;;;;;;;9.18;1.60;;;7.60;99.90;;;;;;5126510;27;20087;-83
2022/01/22 08:32:58;;;;;;;5.78;2.08;;;6.80;99.90;;;;;;5140390;27;20448;-83
2022/01/22 08:35:54;;;;;;;4.10;1.33;;;6.80;99.90;;;;;;5156391;27;20080;-83
2022/01/22 08:38:38;;;;;;;4.38;1.40;;;6.10;99.90;;;;;;5142602;27;20077;-82
2022/01/22 08:41:22;;;;;;;8.40;1.88;;;6.20;99.90;;;;;;5125756;27;20042;-83
2022/01/22 08:44:07;;;;;;;5.70;1.50;;;6.10;99.90;;;;;;5138890;27;20065;-83
2022/01/22 08:46:52;;;;;;;6.45;1.52;;;6.10;99.90;;;;;;5125291;27;20087;-83
2022/01/22 08:49:36;;;;;;;13.20;2.10;;;7.30;99.90;;;;;;5125795;27;20034;-83
2022/01/22 08:52:25;;;;;;;5.70;1.50;;;6.50;99.90;;;;;;5155681;27;20038;-83
2022/01/22 08:55:09;;;;;;;8.40;1.80;;;6.20;99.90;;;;;;5125547;27;20038;-83
2022/01/22 08:57:54;;;;;;;10.02;2.13;;;6.20;99.90;;;;;;5124983;27;20045;-83
2022/01/22 09:00:39;;;;;;;9.60;1.38;;;7.10;99.90;;;;;;5155487;27;20045;-82
2022/01/22 09:03:24;;;;;;;9.57;1.38;;;6.20;99.90;;;;;;5125266;27;20045;-82
2022/01/22 09:06:11;;;;;;;8.38;1.60;;;;;;;;;;5154961;27;20091;-83
2022/01/22 09:09:06;;;;;;;7.15;2.25;;;6.20;99.90;;;;;;5139210;27;20030;-83
2022/01/22 09:11:50;;;;;;;12.50;1.60;;;6.20;99.90;;;;;;5141342;27;20497;-83
2022/01/22 09:14:36;;;;;;;7.13;1.88;;;6.90;99.90;;;;;;5125232;27;20034;-82
2022/01/22 09:17:20;;;;;;;8.05;1.67;;;6.20;99.90;;;;;;5139692;27;20082;-83
2022/01/22 09:20:09;;;;;;;8.48;1.63;;;6.20;99.90;;;;;;5124539;27;20037;-83
2022/01/22 09:22:53;;;;;;;10.88;1.98;;;6.20;99.90;;;;;;5125634;27;20390;-83
2022/01/22 09:25:38;;;;;;;9.25;2.10;;;6.20;99.90;;;;;;5110419;27;20049;-83
2022/01/22 09:28:23;;;;;;;9.82;1.70;;;7.50;99.90;;;;;;5155250;27;20042;-82
2022/01/22 09:31:10;;;;;;;9.80;1.80;;;7.80;99.90;;;;;;5139106;27;20058;-83
2022/01/22 09:33:57;;;;;;;10.85;2.05;;;7.60;99.90;;;;;;5139437;27;20062;-82
2022/01/22 09:36:42;;;;;;;9.60;2.05;;;7.50;99.90;;;;;;5155005;27;20078;-83
2022/01/22 09:39:26;;;;;;;9.52;2.33;;;6.30;99.90;;;;;;5139027;27;20084;-83
2022/01/22 09:42:10;;;;;;;;;;;6.30;99.90;;;;;;5139095;27;20126;-83
2022/01/22 09:44:54;;;;;;;6.15;2.10;;;6.30;99.90;;;;;;5139107;27;20025;-83
2022/01/22 09:47:45;;;;;;;10.00;2.20;;;6.90;99.90;;;;;;5110167;27;20121;-82
2022/01/22 09:50:31;;;;;;;12.13;3.55;;;6.50;99.90;;;;;;5138925;27;20045;-83
2022/01/22 09:53:15;;;;;;;14.02;3.50;;;6.40;99.90;;;;;;5124119;27;20501;-82
2022/01/22 09:55:59;;;;;;;16.15;3.92;;;6.70;99.90;;;;;;5154092;27;20394;-83
2022/01/22 09:58:43;;;;;;;;;;;7.00;99.90;;;;;;5139274;27;20083;-83
2022/01/22 10:01:35;;;;;;;13.63;3.17;;;7.60;99.90;;;;;;5138893;27;20426;-83
2022/01/22 10:04:35;;;;;;;15.45;2.35;;;6.40;99.90;;;;;;5138313;27;20517;-83
2022/01/22 10:07:21;;;;;;;12.70;3.20;;;6.50;99.90;;;;;;5138309;27;20389;-83
2022/01/22 10:10:07;;;;;;;18.60;2.92;;;6.50;99.90;;;;;;5138216;27;20500;-82
2022/01/22 10:12:52;;;;;;;17.27;3.75;;;6.40;99.90;;;;;;5138636;27;20122;-83
2022/01/22 10:15:38;;;;;;;15.68;5.03;;;6.40;99.90;;;;;;5124150;27;20041;-83
2022/01/22 10:18:22;;;;;;;12.32;3.20;;;6.50;99.90;;;;;;5153864;27;20038;-83
2022/01/22 10:21:08;;;;;;;10.98;2.70;;;6.40;99.90;;;;;;5138234;27;20094;-82
2022/01/22 10:23:53;;;;;;;12.20;3.13;;;7.20;99.90;;;;;;5138625;27;20255;-83
2022/01/22 10:26:37;;;;;;;;;;;6.60;99.90;;;;;;5139190;27;20440;-83
2022/01/22 10:29:21;;;;;;;9.82;2.80;;;6.60;99.90;;;;;;5138049;27;19967;-83
2022/01/22 10:32:05;;;;;;;11.90;3.45;;;6.60;99.90;;;;;;5137946;27;20510;-83
2022/01/22 10:35:01;;;;;;;;;;;6.60;99.90;;;;;;5154681;27;20418;-83
2022/01/22 10:37:45;;;;;;;14.35;4.05;;;7.90;99.90;;;;;;5154094;27;20373;-83
2022/01/22 10:40:33;;;;;;;17.33;4.53;;;8.20;99.90;;;;;;5138594;27;20094;-83
2022/01/22 10:43:32;;;;;;;18.38;4.75;;;6.70;99.90;;;;;;5153704;27;20079;-83
2022/01/22 10:46:31;;;;;;;16.80;4.45;;;9.00;99.90;;;;;;5137969;27;20049;-83
2022/01/22 10:49:19;;;;;;;20.30;3.92;;;7.90;99.90;;;;;;5153629;27;20046;-83
2022/01/22 10:52:04;;;;;;;18.50;3.75;;;6.70;99.90;;;;;;5153968;27;20050;-83
2022/01/22 10:55:01;;;;;;;17.27;3.55;;;6.50;99.90;;;;;;5138181;27;20033;-83
2022/01/22 10:58:14;;;;;;;17.65;4.70;;;6.70;99.90;;;;;;5138244;27;20037;-83
2022/01/22 11:01:05;;;;;;;20.10;4.32;;;7.60;99.90;;;;;;5115154;27;20057;-83
2022/01/22 11:04:09;;;;;;;20.88;4.30;;;6.70;99.90;;;;;;5153831;27;20079;-83
2022/01/22 11:07:03;;;;;;;12.43;4.68;;;7.50;99.90;;;;;;5138544;27;20054;-83
2022/01/22 11:09:47;;;;;;;14.80;4.43;;;6.80;99.90;;;;;;5142022;27;20065;-83
2022/01/22 11:12:31;;;;;;;21.00;5.70;;;6.80;99.90;;;;;;5141646;27;20092;-83
2022/01/22 11:15:15;;;;;;;15.68;3.85;;;7.10;99.90;;;;;;5127089;27;20116;-83
2022/01/22 11:18:01;;;;;;;17.00;3.42;;;6.70;99.90;;;;;;5113065;27;20501;-83
2022/01/22 11:20:47;;;;;;;12.02;3.03;;;6.70;99.90;;;;;;5157524;27;20034;-83
2022/01/22 11:23:35;;;;;;;19.85;3.63;;;6.70;99.90;;;;;;5157053;27;20394;-83
2022/01/22 11:26:20;;;;;;;17.30;3.90;;;6.70;99.90;;;;;;5156958;27;20034;-83
2022/01/22 11:29:05;;;;;;;16.48;4.10;;;8.20;99.90;;;;;;5141654;27;20462;-83
2022/01/22 11:31:52;;;;;;;14.55;3.35;;;6.70;99.90;;;;;;5127310;27;20126;-83
2022/01/22 11:34:37;;;;;;;18.52;3.72;;;8.30;99.90;;;;;;5126672;27;20061;-83
2022/01/22 11:37:33;;;;;;;13.85;3.08;;;6.70;99.90;;;;;;5141111;27;20114;-83
2022/01/22 11:40:24;;;;;;;13.00;3.30;;;6.70;99.90;;;;;;5141094;27;20078;-83
2022/01/22 11:43:19;;;;;;;14.07;3.25;;;6.70;99.90;;;;;;5141487;27;20083;-83
2022/01/22 11:46:20;;;;;;;10.90;3.03;;;6.80;99.90;;;;;;5141476;27;20042;-83
2022/01/22 11:49:28;;;;;;;14.40;3.10;;;6.70;99.90;;;;;;5156930;27;20059;-83
2022/01/22 11:52:12;;;;;;;12.90;3.42;;;6.70;99.90;;;;;;5156379;27;20045;-84
2022/01/22 11:55:07;;;;;;;14.75;3.65;;;6.70;99.90;;;;;;5141199;27;20158;-83
2022/01/22 11:58:06;;;;;;;17.35;3.00;;;6.80;99.90;;;;;;5141185;27;20050;-83
2022/01/22 12:00:50;;;;;;;16.38;3.40;;;7.10;99.90;;;;;;5156899;27;20091;-83
2022/01/22 12:03:34;;;;;;;;;;;6.30;99.90;;;;;;5126470;27;20038;-83
2022/01/22 12:06:19;;;;;;;9.18;3.15;;;7.70;99.90;;;;;;5126023;27;19960;-83
2022/01/22 12:09:15;;;;;;;16.27;3.97;;;7.60;99.90;;;;;;5126632;27;20160;-83
2022/01/22 12:15:35;;;;;;;29.02;12.13;;;6.80;99.90;;;;;;5155999;27;20547;-83
2022/01/22 12:18:29;;;;;;;;;;;6.90;99.90;;;;;;5140086;27;20196;-83
2022/01/22 12:21:31;;;;;;;18.15;5.55;;;6.80;99.90;;;;;;5140759;27;20377;-83
2022/01/22 12:24:30;;;;;;;24.20;16.45;;;6.80;99.90;;;;;;5126039;27;20507;-84
2022/01/22 12:27:44;;;;;;;18.77;8.18;;;6.80;99.90;;;;;;5140506;27;20118;-83
2022/01/22 12:31:11;;;;;;;16.70;3.72;;;7.20;99.90;;;;;;5155708;27;20410;-83
2022/01/22 12:33:55;;;;;;;17.05;6.05;;;6.80;99.90;;;;;;5104091;27;20490;-83
2022/01/22 12:36:41;;;;;;;15.77;6.20;;;6.80;99.90;;;;;;5139904;27;20033;-83
2022/01/22 12:39:29;;;;;;;16.45;5.40;;;6.80;99.90;;;;;;5125664;27;20077;-83
2022/01/22 12:42:23;;;;;;;17.42;5.78;;;6.80;99.90;;;;;;5140359;27;20090;-83
2022/01/22 12:45:07;;;;;;;16.13;5.65;;;6.90;99.90;;;;;;5141843;27;20037;-83
2022/01/22 12:47:54;;;;;;;13.07;4.15;;;6.80;99.90;;;;;;5140127;27;20052;-83
2022/01/22 12:50:39;;;;;;;19.40;5.40;;;7.10;99.90;;;;;;5139975;27;20046;-83
2022/01/22 12:53:23;;;;;;;24.05;5.43;;;7.40;99.90;;;;;;5155302;27;20397;-83
2022/01/22 12:58:51;;;;;;;;;;;6.90;99.90;;;;;;5156052;27;20129;-83
2022/01/22 13:01:38;;;;;;;15.52;4.22;;;6.90;99.90;;;;;;5124995;27;19932;-83
2022/01/22 13:04:22;;;;;;;17.10;4.82;;;7.20;99.90;;;;;;5139557;27;20492;-83
2022/01/22 13:07:13;;;;;;;24.05;8.40;;;7.00;99.90;;;;;;5125396;27;20045;-83
2022/01/22 13:10:06;;;;;;;14.13;3.85;;;7.50;99.90;;;;;;5139894;27;20099;-83
2022/01/22 13:12:52;;;;;;;20.20;5.47;;;7.00;99.90;;;;;;5139662;27;20041;-83
2022/01/22 13:15:37;;;;;;;10.57;4.22;;;7.00;99.90;;;;;;5125093;27;20037;-83
2022/01/22 13:18:21;;;;;;;18.27;5.95;;;7.00;99.90;;;;;;5125355;27;20038;-82
2022/01/22 13:21:07;;;;;;;;;;;7.00;99.90;;;;;;5125380;27;20098;-83
2022/01/22 13:23:58;;;;;;;11.85;5.00;;;7.00;99.90;;;;;;5139606;27;19918;-83
2022/01/22 13:26:59;;;;;;;13.93;3.95;;;7.00;99.90;;;;;;5138935;27;20137;-83
2022/01/22 13:29:54;;;;;;;11.57;3.35;;;7.00;99.90;;;;;;5138502;27;20038;-83
2022/01/22 13:32:50;;;;;;;13.18;3.42;;;7.20;99.90;;;;;;5138858;27;20547;-83
2022/01/22 13:47:44;;;;;;;38.70;15.82;;;6.90;99.90;;;;;;5154760;27;20106;-83
2022/01/22 13:50:30;;;;;;;12.23;4.60;;;6.90;99.90;;;;;;5154198;27;20045;-84
2022/01/22 13:53:14;;;;;;;16.30;4.30;;;6.80;99.90;;;;;;5139068;27;20099;-83
2022/01/22 13:56:05;;;;;;;15.88;6.47;;;6.80;99.90;;;;;;5154810;27;20054;-83
2022/01/22 13:58:54;;;;;;;14.02;3.90;;;6.80;99.90;;;;;;5138352;27;20498;-83
2022/01/22 14:01:50;;;;;;;20.13;7.90;;;6.80;99.90;;;;;;5138402;27;20086;-83
2022/01/22 14:04:39;;;;;;;8.48;3.25;;;6.80;99.90;;;;;;5113082;27;20080;-83
2022/01/22 14:07:33;;;;;;;19.02;8.73;;;6.80;99.90;;;;;;5154452;27;20079;-83
2022/01/22 14:10:20;;;;;;;13.50;3.35;;;6.80;99.90;;;;;;5154233;27;20038;-83
2022/01/22 14:13:10;;;;;;;11.60;2.80;;;6.80;99.90;;;;;;5138561;27;20079;-83
2022/01/22 14:15:54;;;;;;;11.07;3.05;;;6.80;99.90;;;;;;5139062;27;20141;-83
2022/01/22 14:18:39;;;;;;;;;;;6.80;99.90;;;;;;5123972;27;20038;-83
2022/01/22 14:21:24;;;;;;;11.43;4.32;;;6.70;99.90;;;;;;5138596;27;19925;-83
2022/01/22 14:24:09;;;;;;;10.75;2.38;;;7.00;99.90;;;;;;5154293;27;20082;-83
2022/01/22 14:26:53;;;;;;;11.27;2.88;;;6.70;99.90;;;;;;5138226;27;20571;-83
2022/01/22 14:29:42;;;;;;;;;;;6.70;99.90;;;;;;5138568;27;20394;-83
2022/01/22 14:32:27;;;;;;;8.57;2.80;;;6.90;99.90;;;;;;5138409;27;19960;-83
2022/01/22 14:35:21;;;;;;;9.77;2.88;;;6.60;99.90;;;;;;5123777;27;20137;-83
2022/01/22 14:38:23;;;;;;;10.60;2.47;;;6.60;99.90;;;;;;5154172;27;20099;-83
2022/01/22 14:44:32;;;;;;;16.30;10.52;;;6.60;99.90;;;;;;5158390;27;20075;-83
2022/01/22 14:47:25;;;;;;;12.05;9.10;;;8.00;99.90;;;;;;5158293;27;20467;-83
2022/01/22 14:50:10;;;;;;;8.35;4.60;;;6.60;99.90;;;;;;5142589;27;20069;-83
2022/01/22 14:52:56;;;;;;;8.88;2.95;;;6.60;99.90;;;;;;5157586;27;20040;-83
2022/01/22 14:55:59;;;;;;;7.75;2.33;;;6.60;99.90;;;;;;5141898;27;20119;-83
2022/01/22 14:58:43;;;;;;;8.82;2.60;;;7.10;99.90;;;;;;5141864;27;20141;-83
2022/01/22 15:01:27;;;;;;;;;;;6.60;99.90;;;;;;5142738;27;20402;-83
2022/01/22 15:04:12;;;;;;;;;;;6.60;99.90;;;;;;5142739;27;19914;-83
2022/01/22 15:06:58;;;;;;;7.43;1.95;;;6.60;99.90;;;;;;5141694;27;19918;-83
2022/01/22 15:09:44;;;;;;;6.90;2.05;;;6.50;99.90;;;;;;5127268;27;20037;-83
2022/01/22 15:12:29;;;;;;;6.43;1.85;;;6.50;99.90;;;;;;5127640;27;20061;-83
2022/01/22 15:15:14;;;;;;;9.93;2.38;;;;;;;;;;5142139;27;20041;-83
2022/01/22 15:18:08;;;;;;;11.88;4.28;;;6.40;99.90;;;;;;5141445;27;20042;-83
2022/01/22 15:20:53;;;;;;;10.60;3.30;;;6.40;99.90;;;;;;5128411;27;20046;-83
2022/01/22 15:23:38;;;;;;;7.45;2.45;;;6.40;99.90;;;;;;5141819;27;20054;-84
2022/01/22 15:26:22;;;;;;;11.60;5.03;;;6.40;99.90;;;;;;5141748;27;20029;-83
2022/01/22 15:29:10;;;;;;;8.55;3.35;;;6.30;99.90;;;;;;5141637;27;20118;-83
2022/01/22 15:34:54;;;;;;;10.55;2.40;;;6.50;99.90;;;;;;5156603;27;20054;-83
2022/01/22 15:37:47;;;;;;;13.63;2.92;;;6.50;99.90;;;;;;5141489;27;20083;-83
2022/01/22 15:40:33;;;;;;;10.35;4.25;;;6.20;99.90;;;;;;5157328;27;20045;-83
2022/01/22 15:43:17;;;;;;;13.98;4.35;;;6.30;99.90;;;;;;5127235;27;20038;-83
2022/01/22 15:46:02;;;;;;;10.77;2.80;;;6.20;99.90;;;;;;5140992;27;20057;-83
2022/01/22 15:48:47;;;;;;;9.32;2.28;;;6.20;99.90;;;;;;5140967;27;20079;-83
2022/01/22 15:51:33;;;;;;;11.05;3.42;;;7.00;99.90;;;;;;5141677;27;20072;-83
2022/01/22 15:54:18;;;;;;;9.77;2.70;;;6.20;99.90;;;;;;5126445;27;20042;-83
2022/01/22 15:57:05;;;;;;;13.35;5.38;;;6.20;99.90;;;;;;5140702;27;20436;-83
2022/01/22 15:59:50;;;;;;;17.92;9.70;;;6.10;99.90;;;;;;5141104;27;20146;-83
2022/01/22 16:02:35;;;;;;;;;;;7.60;99.90;;;;;;5157318;27;20049;-83
2022/01/22 16:05:24;;;;;;;16.58;6.13;;;6.00;99.90;;;;;;5141199;27;20014;-83
2022/01/22 16:08:10;;;;;;;19.77;7.45;;;6.00;99.90;;;;;;5157167;27;20034;-83
2022/01/22 16:10:54;;;;;;;13.70;6.22;;;6.70;99.90;;;;;;5140574;27;20540;-83
2022/01/22 16:13:41;;;;;;;8.52;3.30;;;8.30;99.90;;;;;;5156582;27;20033;-83
2022/01/22 16:16:27;;;;;;;5.65;2.40;;;6.60;99.90;;;;;;5156709;27;20436;-83
2022/01/22 16:19:13;;;;;;;6.40;2.75;;;5.00;99.90;;;;;;5126598;27;20447;-83
2022/01/22 16:21:57;;;;;;;6.93;3.30;;;7.60;99.90;;;;;;5140335;27;20037;-83
2022/01/22 16:24:42;;;;;;;6.40;2.22;;;5.90;99.90;;;;;;5126318;27;20398;-83
2022/01/22 16:27:28;;;;;;;10.00;2.50;;;8.30;99.90;;;;;;5156273;27;20139;-83
2022/01/22 16:30:13;;;;;;;6.18;1.80;;;5.90;99.90;;;;;;5156280;27;20033;-83
2022/01/22 16:32:57;;;;;;;7.20;2.03;;;5.80;99.90;;;;;;5125568;27;20395;-83